createdAt,value
2023-02-01T03:58:52.616Z,464.00
2023-02-01T03:59:52.365Z,435.00
2023-02-01T04:00:52.645Z,436.00
2023-02-01T04:01:52.859Z,435.00
2023-02-01T04:02:53.129Z,435.00
2023-02-01T04:03:52.371Z,436.00
2023-02-01T04:04:53.111Z,435.00
2023-02-01T04:05:53.393Z,432.00
2023-02-01T04:06:53.601Z,432.00
2023-02-01T04:07:53.844Z,433.00
2023-02-01T04:08:54.115Z,430.00
2023-02-01T04:09:53.815Z,428.00
2023-02-01T04:10:54.103Z,426.00
2023-02-01T04:11:54.369Z,427.00
2023-02-01T04:12:54.606Z,427.00
2023-02-01T04:13:54.354Z,426.00
2023-02-01T04:14:54.618Z,428.00
2023-02-01T04:15:54.857Z,428.00
2023-02-01T04:16:55.098Z,427.00
2023-02-01T04:17:55.793Z,427.00
2023-02-01T04:18:58.683Z,430.00
2023-02-01T04:19:55.466Z,431.00
2023-02-01T04:20:53.697Z,431.00
2023-02-01T04:21:53.803Z,430.00
2023-02-01T04:22:54.932Z,429.00
2023-02-01T04:23:55.168Z,427.00
2023-02-01T04:24:54.233Z,425.00
2023-02-01T04:25:55.941Z,427.00
2023-02-01T04:26:56.220Z,431.00
2023-02-01T04:27:56.438Z,431.00
2023-02-01T04:28:56.709Z,432.00
2023-02-01T04:29:58.412Z,432.00
2023-02-01T04:30:56.002Z,430.00
2023-02-01T04:31:56.690Z,430.00
2023-02-01T04:32:56.934Z,429.00
2023-02-01T04:33:57.171Z,428.00
2023-02-01T04:34:56.467Z,429.00
2023-02-01T04:35:56.727Z,431.00
2023-02-01T04:36:55.710Z,430.00
2023-02-01T04:37:56.941Z,426.00
2023-02-01T04:38:57.697Z,423.00
2023-02-01T04:39:56.105Z,423.00
2023-02-01T04:40:56.231Z,425.00
2023-02-01T04:41:56.377Z,426.00
2023-02-01T04:42:57.598Z,425.00
2023-02-01T04:43:56.652Z,424.00
2023-02-01T04:44:56.833Z,426.00
2023-02-01T04:45:57.017Z,429.00
2023-02-01T04:46:58.716Z,430.00
2023-02-01T04:47:58.451Z,430.00
2023-02-01T04:48:57.327Z,428.00
2023-02-01T04:49:58.596Z,428.00
2023-02-01T04:50:57.593Z,427.00
2023-02-01T04:51:57.698Z,427.00
2023-02-01T04:52:58.930Z,426.00
2023-02-01T04:53:58.010Z,425.00
2023-02-01T04:54:59.328Z,425.00
2023-02-01T04:55:58.237Z,426.00
2023-02-01T04:56:58.416Z,422.00
2023-02-01T04:58:00.149Z,423.00
2023-02-01T04:59:00.399Z,424.00
2023-02-01T04:59:58.785Z,423.00
2023-02-01T05:01:00.658Z,420.00
2023-02-01T05:02:00.807Z,422.00
2023-02-01T05:03:01.056Z,420.00
2023-02-01T05:04:01.296Z,419.00
2023-02-01T05:05:00.580Z,422.00
2023-02-01T05:06:01.274Z,421.00
2023-02-01T05:07:01.565Z,424.00
2023-02-01T05:08:01.346Z,424.00
2023-02-01T05:09:02.063Z,425.00
2023-02-01T05:10:01.818Z,424.00
2023-02-01T05:11:02.047Z,426.00
2023-02-01T05:12:02.310Z,426.00
2023-02-01T05:13:02.534Z,426.00
2023-02-01T05:14:02.707Z,424.00
2023-02-01T05:15:02.547Z,423.00
2023-02-01T05:16:03.777Z,422.00
2023-02-01T05:17:03.047Z,421.00
2023-02-01T05:18:02.170Z,422.00
2023-02-01T05:19:03.104Z,423.00
2023-02-01T05:20:02.499Z,422.00
2023-02-01T05:21:02.646Z,422.00
2023-02-01T05:22:01.962Z,422.00
2023-02-01T05:23:02.977Z,422.00
2023-02-01T05:24:03.887Z,422.00
2023-02-01T05:25:02.475Z,423.00
2023-02-01T05:26:03.444Z,424.00
2023-02-01T05:27:04.395Z,423.00
2023-02-01T05:28:02.846Z,423.00
2023-02-01T05:29:02.953Z,422.00
2023-02-01T05:30:04.080Z,416.00
2023-02-01T05:31:04.323Z,418.00
2023-02-01T05:32:20.619Z,419.00
2023-02-01T05:33:05.100Z,421.00
2023-02-01T05:34:04.831Z,423.00
2023-02-01T05:35:04.776Z,423.00
2023-02-01T05:36:06.857Z,425.00
2023-02-01T05:37:04.039Z,424.00
2023-02-01T05:38:05.804Z,425.00
2023-02-01T05:39:04.333Z,422.00
2023-02-01T05:40:04.505Z,421.00
2023-02-01T05:41:05.681Z,424.00
2023-02-01T05:42:04.790Z,423.00
2023-02-01T05:43:05.557Z,424.00
2023-02-01T05:44:06.309Z,424.00
2023-02-01T05:45:05.420Z,423.00
2023-02-01T05:46:07.205Z,424.00
2023-02-01T05:47:07.448Z,426.00
2023-02-01T05:48:07.192Z,427.00
2023-02-01T05:49:05.760Z,427.00
2023-02-01T05:50:05.875Z,427.00
2023-02-01T05:51:07.112Z,428.00
2023-02-01T05:52:06.144Z,425.00
2023-02-01T05:53:06.320Z,428.00
2023-02-01T05:54:07.534Z,428.00
2023-02-01T05:55:06.603Z,427.00
2023-02-01T05:56:06.701Z,428.00
2023-02-01T05:57:08.462Z,429.00
2023-02-01T05:58:06.965Z,427.00
2023-02-01T05:59:08.217Z,428.00
2023-02-01T06:00:07.211Z,424.00
2023-02-01T06:01:09.005Z,424.00
2023-02-01T06:02:09.249Z,423.00
2023-02-01T06:03:08.568Z,423.00
2023-02-01T06:04:08.751Z,423.00
2023-02-01T06:05:07.836Z,423.00
2023-02-01T06:06:08.891Z,422.00
2023-02-01T06:07:08.109Z,423.00
2023-02-01T06:08:09.865Z,423.00
2023-02-01T06:09:09.368Z,422.00
2023-02-01T06:10:10.127Z,424.00
2023-02-01T06:11:10.987Z,427.00
2023-02-01T06:12:08.827Z,426.00
2023-02-01T06:13:10.001Z,426.00
2023-02-01T06:14:10.114Z,424.00
2023-02-01T06:15:10.847Z,422.00
2023-02-01T06:16:10.579Z,422.00
2023-02-01T06:17:10.576Z,423.00
2023-02-01T06:18:10.715Z,425.00
2023-02-01T06:19:10.984Z,424.00
2023-02-01T06:20:12.084Z,425.00
2023-02-01T06:21:10.971Z,426.00
2023-02-01T06:22:10.224Z,427.00
2023-02-01T06:23:11.455Z,428.00
2023-02-01T06:24:11.460Z,427.00
2023-02-01T06:25:11.641Z,428.00
2023-02-01T06:26:11.513Z,428.00
2023-02-01T06:27:11.667Z,427.00
2023-02-01T06:28:12.255Z,429.00
2023-02-01T06:29:12.012Z,428.00
2023-02-01T06:30:12.147Z,429.00
2023-02-01T06:31:12.428Z,431.00
2023-02-01T06:32:13.243Z,432.00
2023-02-01T06:33:12.625Z,429.00
2023-02-01T06:34:12.899Z,427.00
2023-02-01T06:35:13.034Z,427.00
2023-02-01T06:36:13.225Z,427.00
2023-02-01T06:37:13.437Z,427.00
2023-02-01T06:38:13.647Z,426.00
2023-02-01T06:39:13.614Z,426.00
2023-02-01T06:40:13.855Z,425.00
2023-02-01T06:41:13.926Z,425.00
2023-02-01T06:42:15.513Z,425.00
2023-02-01T06:43:15.248Z,425.00
2023-02-01T06:44:15.773Z,425.00
2023-02-01T06:45:14.521Z,427.00
2023-02-01T06:46:15.306Z,431.00
2023-02-01T06:47:13.741Z,434.00
2023-02-01T06:48:14.981Z,436.00
2023-02-01T06:49:15.325Z,434.00
2023-02-01T06:50:14.233Z,432.00
2023-02-01T06:51:14.371Z,431.00
2023-02-01T06:52:14.549Z,430.00
2023-02-01T06:53:14.599Z,433.00
2023-02-01T06:54:16.028Z,433.00
2023-02-01T06:55:14.914Z,433.00
2023-02-01T06:56:15.038Z,433.00
2023-02-01T06:57:15.269Z,433.00
2023-02-01T06:58:17.048Z,433.00
2023-02-01T06:59:17.374Z,434.00
2023-02-01T07:00:15.702Z,434.00
2023-02-01T07:01:17.020Z,434.00
2023-02-01T07:02:15.961Z,435.00
2023-02-01T07:03:18.792Z,437.00
2023-02-01T07:04:18.572Z,437.00
2023-02-01T07:05:17.903Z,438.00
2023-02-01T07:06:18.198Z,435.00
2023-02-01T07:07:18.704Z,433.00
2023-02-01T07:08:19.108Z,435.00
2023-02-01T07:09:18.499Z,435.00
2023-02-01T07:10:19.374Z,435.00
2023-02-01T07:11:19.647Z,439.00
2023-02-01T07:12:19.005Z,442.00
2023-02-01T07:13:19.737Z,443.00
2023-02-01T07:14:19.141Z,443.00
2023-02-01T07:15:18.316Z,440.00
2023-02-01T07:16:19.418Z,437.00
2023-02-01T07:17:19.619Z,441.00
2023-02-01T07:18:20.230Z,441.00
2023-02-01T07:19:19.868Z,442.00
2023-02-01T07:20:19.236Z,440.00
2023-02-01T07:21:21.094Z,442.00
2023-02-01T07:22:20.416Z,445.00
2023-02-01T07:23:20.179Z,443.00
2023-02-01T07:24:19.522Z,443.00
2023-02-01T07:25:21.385Z,444.00
2023-02-01T07:26:20.110Z,444.00
2023-02-01T07:27:19.995Z,444.00
2023-02-01T07:28:20.144Z,444.00
2023-02-01T07:29:21.581Z,446.00
2023-02-01T07:30:20.865Z,447.00
2023-02-01T07:31:24.400Z,448.00
2023-02-01T07:32:21.370Z,449.00
2023-02-01T07:33:19.906Z,451.00
2023-02-01T07:34:21.207Z,454.00
2023-02-01T07:35:21.126Z,454.00
2023-02-01T07:36:20.283Z,452.00
2023-02-01T07:37:22.097Z,450.00
2023-02-01T07:38:20.568Z,449.00
2023-02-01T07:39:23.288Z,449.00
2023-02-01T07:40:22.808Z,448.00
2023-02-01T07:41:21.715Z,446.00
2023-02-01T07:42:23.569Z,446.00
2023-02-01T07:43:21.260Z,448.00
2023-02-01T07:44:23.740Z,450.00
2023-02-01T07:45:23.970Z,448.00
2023-02-01T07:46:25.760Z,447.00
2023-02-01T07:47:23.732Z,446.00
2023-02-01T07:48:25.139Z,447.00
2023-02-01T07:49:22.959Z,450.00
2023-02-01T07:50:25.014Z,451.00
2023-02-01T07:51:24.304Z,450.00
2023-02-01T07:52:25.211Z,449.00
2023-02-01T07:53:25.051Z,448.00
2023-02-01T07:54:25.383Z,448.00
2023-02-01T07:55:25.354Z,445.00
2023-02-01T07:56:24.975Z,446.00
2023-02-01T07:57:25.099Z,445.00
2023-02-01T07:58:24.979Z,444.00
2023-02-01T07:59:27.451Z,445.00
2023-02-01T08:00:25.650Z,445.00
2023-02-01T08:01:26.220Z,444.00
2023-02-01T08:02:26.430Z,444.00
2023-02-01T08:03:26.604Z,445.00
2023-02-01T08:04:26.191Z,445.00
2023-02-01T08:05:24.240Z,444.00
2023-02-01T08:06:24.397Z,447.00
2023-02-01T08:07:24.489Z,447.00
2023-02-01T08:08:26.750Z,446.00
2023-02-01T08:09:25.899Z,443.00
2023-02-01T08:10:28.669Z,443.00
2023-02-01T08:11:27.079Z,443.00
2023-02-01T08:12:26.470Z,442.00
2023-02-01T08:13:25.328Z,443.00
2023-02-01T08:14:25.649Z,441.00
2023-02-01T08:15:27.331Z,440.00
2023-02-01T08:16:26.816Z,436.00
2023-02-01T08:17:27.580Z,434.00
2023-02-01T08:18:27.918Z,435.00
2023-02-01T08:19:26.170Z,433.00
2023-02-01T08:20:26.446Z,429.00
2023-02-01T08:21:30.514Z,431.00
2023-02-01T08:22:29.012Z,432.00
2023-02-01T08:23:29.643Z,432.00
2023-02-01T08:24:28.422Z,432.00
2023-02-01T08:25:30.009Z,435.00
2023-02-01T08:26:31.999Z,438.00
2023-02-01T08:27:28.130Z,437.00
2023-02-01T08:28:30.073Z,438.00
2023-02-01T08:29:30.111Z,433.00
2023-02-01T08:30:28.560Z,431.00
2023-02-01T08:31:27.982Z,431.00
2023-02-01T08:32:37.925Z,430.00
2023-02-01T08:33:32.093Z,434.00
2023-02-01T08:34:29.531Z,436.00
2023-02-01T08:35:42.273Z,435.00
2023-02-01T08:36:31.345Z,436.00
2023-02-01T08:37:29.512Z,437.00
2023-02-01T08:38:30.575Z,437.00
2023-02-01T08:39:29.054Z,439.00
2023-02-01T08:40:29.308Z,441.00
2023-02-01T08:41:31.064Z,442.00
2023-02-01T08:42:30.631Z,441.00
2023-02-01T08:43:29.769Z,440.00
2023-02-01T08:44:29.585Z,439.00
2023-02-01T08:45:29.761Z,440.00
2023-02-01T08:46:31.622Z,440.00
2023-02-01T08:47:33.331Z,441.00
2023-02-01T08:48:30.904Z,441.00
2023-02-01T08:49:31.068Z,441.00
2023-02-01T08:50:31.280Z,442.00
2023-02-01T08:51:33.011Z,441.00
2023-02-01T08:52:30.986Z,443.00
2023-02-01T08:53:30.971Z,445.00
2023-02-01T08:54:30.978Z,446.00
2023-02-01T08:55:31.449Z,448.00
2023-02-01T08:56:32.771Z,445.00
2023-02-01T08:57:31.783Z,442.00
2023-02-01T08:58:31.583Z,444.00
2023-02-01T08:59:33.344Z,445.00
2023-02-01T09:00:32.576Z,445.00
2023-02-01T09:01:32.047Z,446.00
2023-02-01T09:02:32.888Z,450.00
2023-02-01T09:03:35.372Z,451.00
2023-02-01T09:04:32.313Z,450.00
2023-02-01T09:05:48.392Z,448.00
2023-02-01T09:06:33.554Z,447.00
2023-02-01T09:07:36.286Z,446.00
2023-02-01T09:08:32.864Z,448.00
2023-02-01T09:09:32.982Z,450.00
2023-02-01T09:10:35.475Z,452.00
2023-02-01T09:11:34.946Z,452.00
2023-02-01T09:12:35.352Z,451.00
2023-02-01T09:13:34.792Z,452.00
2023-02-01T09:14:35.014Z,453.00
2023-02-01T09:15:35.768Z,452.00
2023-02-01T09:16:37.671Z,451.00
2023-02-01T09:17:35.497Z,450.00
2023-02-01T09:18:41.962Z,446.00
2023-02-01T09:19:37.986Z,447.00
2023-02-01T09:20:36.267Z,446.00
2023-02-01T09:21:36.030Z,446.00
2023-02-01T09:22:34.943Z,445.00
2023-02-01T09:23:34.868Z,446.00
2023-02-01T09:24:35.329Z,447.00
2023-02-01T09:25:35.140Z,449.00
2023-02-01T09:26:38.115Z,449.00
2023-02-01T09:27:38.309Z,449.00
2023-02-01T09:28:38.617Z,449.00
2023-02-01T09:29:37.429Z,450.00
2023-02-01T09:31:01.108Z,449.00
2023-02-01T09:31:37.712Z,448.00
2023-02-01T09:32:37.127Z,449.00
2023-02-01T09:33:38.189Z,447.00
2023-02-01T09:34:36.425Z,449.00
2023-02-01T09:35:36.539Z,448.00
2023-02-01T09:36:36.677Z,450.00
2023-02-01T09:37:36.746Z,448.00
2023-02-01T09:38:41.713Z,448.00
2023-02-01T09:39:37.088Z,447.00
2023-02-01T09:40:38.163Z,444.00
2023-02-01T09:41:38.213Z,441.00
2023-02-01T09:42:37.496Z,441.00
2023-02-01T09:43:39.463Z,443.00
2023-02-01T09:44:44.143Z,445.00
2023-02-01T09:45:42.327Z,446.00
2023-02-01T09:46:40.866Z,448.00
2023-02-01T09:47:38.074Z,450.00
2023-02-01T09:48:39.141Z,450.00
2023-02-01T09:49:40.935Z,450.00
2023-02-01T09:50:38.414Z,449.00
2023-02-01T09:51:41.597Z,449.00
2023-02-01T09:52:39.707Z,449.00
2023-02-01T09:53:39.520Z,448.00
2023-02-01T09:54:39.228Z,446.00
2023-02-01T09:55:39.936Z,447.00
2023-02-01T09:56:44.824Z,448.00
2023-02-01T09:57:42.196Z,447.00
2023-02-01T09:58:39.461Z,447.00
2023-02-01T09:59:40.223Z,444.00
2023-02-01T10:00:40.385Z,445.00
2023-02-01T10:01:42.283Z,444.00
2023-02-01T10:13:12.726Z,483.00
2023-02-01T10:14:10.574Z,462.00
2023-02-01T10:15:15.565Z,459.00
2023-02-01T10:16:10.907Z,456.00
2023-02-01T10:17:13.018Z,456.00
2023-02-01T10:18:11.781Z,455.00
2023-02-01T10:19:12.048Z,455.00
2023-02-01T10:20:11.503Z,454.00
2023-02-01T10:21:14.062Z,454.00
2023-02-01T10:22:16.685Z,457.00
2023-02-01T10:23:31.635Z,460.00
2023-02-01T10:24:18.131Z,459.00
2023-02-01T10:25:11.985Z,458.00
2023-02-01T10:26:13.828Z,457.00
2023-02-01T10:27:12.871Z,457.00
2023-02-01T10:28:15.057Z,456.00
2023-02-01T10:29:14.877Z,452.00
2023-02-01T10:30:18.762Z,451.00
2023-02-01T10:31:16.260Z,448.00
2023-02-01T10:32:12.982Z,448.00
2023-02-01T10:33:13.218Z,445.00
2023-02-01T10:34:15.140Z,448.00
2023-02-01T10:35:16.912Z,448.00
2023-02-01T10:36:17.681Z,450.00
2023-02-01T10:37:15.787Z,451.00
2023-02-01T10:38:15.022Z,451.00
2023-02-01T10:39:16.114Z,453.00
2023-02-01T10:40:14.804Z,454.00
2023-02-01T10:41:14.375Z,458.00
2023-02-01T10:42:14.349Z,461.00
2023-02-01T10:43:15.070Z,463.00
2023-02-01T10:44:16.204Z,464.00
2023-02-01T10:45:16.547Z,463.00
2023-02-01T10:46:16.562Z,463.00
2023-02-01T10:47:15.149Z,464.00
2023-02-01T10:48:15.703Z,464.00
2023-02-01T10:49:16.984Z,462.00
2023-02-01T10:50:15.467Z,457.00
2023-02-01T10:51:16.283Z,457.00
2023-02-01T10:52:15.810Z,462.00
2023-02-01T10:53:17.679Z,465.00
2023-02-01T10:54:15.948Z,466.00
2023-02-01T10:55:19.413Z,467.00
2023-02-01T10:56:16.236Z,470.00
2023-02-01T10:57:18.007Z,471.00
2023-02-01T10:58:16.537Z,472.00
2023-02-01T10:59:16.650Z,475.00
2023-02-01T11:00:18.494Z,474.00
2023-02-01T11:01:16.981Z,473.00
2023-02-01T11:02:20.188Z,467.00
2023-02-01T11:03:17.241Z,467.00
2023-02-01T11:04:17.299Z,464.00
2023-02-01T11:05:19.155Z,462.00
2023-02-01T11:06:17.669Z,459.00
2023-02-01T11:07:17.783Z,457.00
2023-02-01T11:08:18.771Z,459.00
2023-02-01T11:09:19.008Z,457.00
2023-02-01T11:10:19.852Z,455.00
2023-02-01T11:11:20.142Z,456.00
2023-02-01T11:12:18.524Z,458.00
2023-02-01T11:13:19.620Z,459.00
2023-02-01T11:14:20.670Z,458.00
2023-02-01T11:15:20.007Z,458.00
2023-02-01T11:16:22.247Z,457.00
2023-02-01T11:17:21.564Z,458.00
2023-02-01T11:18:20.335Z,458.00
2023-02-01T11:19:21.281Z,458.00
2023-02-01T11:20:19.728Z,457.00
2023-02-01T11:21:21.995Z,460.00
2023-02-01T11:22:20.816Z,457.00
2023-02-01T11:23:19.967Z,457.00
2023-02-01T11:24:21.698Z,456.00
2023-02-01T11:25:21.385Z,453.00
2023-02-01T11:26:22.509Z,452.00
2023-02-01T11:27:27.117Z,453.00
2023-02-01T11:28:21.622Z,455.00
2023-02-01T11:29:23.813Z,458.00
2023-02-01T11:30:22.682Z,459.00
2023-02-01T11:31:22.042Z,460.00
2023-02-01T11:32:21.164Z,461.00
2023-02-01T11:33:21.274Z,459.00
2023-02-01T11:34:22.851Z,458.00
2023-02-01T11:35:22.080Z,458.00
2023-02-01T11:36:23.000Z,456.00
2023-02-01T11:37:25.161Z,456.00
2023-02-01T11:38:22.938Z,455.00
2023-02-01T11:39:26.175Z,456.00
2023-02-01T11:40:22.649Z,454.00
2023-02-01T11:41:25.478Z,452.00
2023-02-01T11:42:23.811Z,451.00
2023-02-01T11:43:23.674Z,449.00
2023-02-01T11:44:23.747Z,450.00
2023-02-01T11:45:22.900Z,449.00
2023-02-01T11:46:24.219Z,449.00
2023-02-01T11:47:24.160Z,446.00
2023-02-01T11:48:27.115Z,443.00
2023-02-01T11:49:25.329Z,439.00
2023-02-01T11:50:24.850Z,438.00
2023-02-01T11:51:24.779Z,435.00
2023-02-01T11:52:23.785Z,435.00
2023-02-01T11:53:23.916Z,437.00
2023-02-01T11:54:25.000Z,435.00
2023-02-01T11:55:26.189Z,435.00
2023-02-01T11:56:26.508Z,436.00
2023-02-01T11:57:25.735Z,434.00
2023-02-01T11:58:25.623Z,437.00
2023-02-01T11:59:28.283Z,435.00
2023-02-01T12:00:26.668Z,431.00
2023-02-01T12:01:26.568Z,431.00
2023-02-01T12:02:26.103Z,429.00
2023-02-01T12:03:25.424Z,431.00
2023-02-01T12:04:27.070Z,434.00
2023-02-01T12:05:25.854Z,433.00
2023-02-01T12:06:29.351Z,431.00
2023-02-01T12:07:29.250Z,433.00
2023-02-01T12:08:26.136Z,435.00
2023-02-01T12:09:27.945Z,438.00
2023-02-01T12:10:29.689Z,441.00
2023-02-01T12:11:27.287Z,442.00
2023-02-01T12:12:27.569Z,442.00
2023-02-01T12:13:26.761Z,443.00
2023-02-01T12:14:29.591Z,443.00
2023-02-01T12:15:27.736Z,445.00
2023-02-01T12:16:28.105Z,444.00
2023-02-01T12:17:29.377Z,444.00
2023-02-01T12:18:29.672Z,440.00
2023-02-01T12:19:28.305Z,441.00
2023-02-01T12:20:27.826Z,443.00
2023-02-01T12:21:28.365Z,441.00
2023-02-01T12:22:30.916Z,439.00
2023-02-01T12:23:28.695Z,440.00
2023-02-01T12:24:28.024Z,439.00
2023-02-01T12:25:29.050Z,439.00
2023-02-01T12:26:29.211Z,439.00
2023-02-01T12:27:32.235Z,438.00
2023-02-01T12:28:29.081Z,437.00
2023-02-01T12:29:28.854Z,437.00
2023-02-01T12:30:28.904Z,435.00
2023-02-01T12:31:29.725Z,433.00
2023-02-01T12:32:31.234Z,432.00
2023-02-01T12:33:31.016Z,434.00
2023-02-01T12:34:29.399Z,435.00
2023-02-01T12:35:30.461Z,434.00
2023-02-01T12:36:31.282Z,433.00
2023-02-01T12:37:29.782Z,434.00
2023-02-01T12:38:29.934Z,435.00
2023-02-01T12:39:30.006Z,435.00
2023-02-01T12:40:31.924Z,435.00
2023-02-01T12:41:30.322Z,434.00
2023-02-01T12:42:32.072Z,430.00
2023-02-01T12:43:30.641Z,430.00
2023-02-01T12:44:30.681Z,430.00
2023-02-01T12:45:30.902Z,433.00
2023-02-01T12:46:30.981Z,435.00
2023-02-01T12:47:32.228Z,437.00
2023-02-01T12:48:32.986Z,437.00
2023-02-01T12:49:31.333Z,435.00
2023-02-01T12:50:33.082Z,435.00
2023-02-01T12:51:33.382Z,435.00
2023-02-01T12:52:33.666Z,434.00
2023-02-01T12:53:32.979Z,432.00
2023-02-01T12:54:33.751Z,430.00
2023-02-01T12:55:33.136Z,430.00
2023-02-01T12:56:34.746Z,432.00
2023-02-01T12:57:35.171Z,432.00
2023-02-01T12:58:33.930Z,429.00
2023-02-01T12:59:34.195Z,429.00
2023-02-01T13:00:34.441Z,430.00
2023-02-01T13:01:34.126Z,434.00
2023-02-01T13:02:34.104Z,436.00
2023-02-01T13:03:34.822Z,436.00
2023-02-01T13:04:33.331Z,436.00
2023-02-01T13:05:35.088Z,435.00
2023-02-01T13:06:34.571Z,437.00
2023-02-01T13:07:34.697Z,435.00
2023-02-01T13:08:36.301Z,433.00
2023-02-01T13:09:35.919Z,434.00
2023-02-01T13:10:35.104Z,433.00
2023-02-01T13:11:35.361Z,434.00
2023-02-01T13:12:35.616Z,434.00
2023-02-01T13:13:35.494Z,434.00
2023-02-01T13:14:35.562Z,435.00
2023-02-01T13:15:35.767Z,437.00
2023-02-01T13:16:35.879Z,439.00
2023-02-01T13:17:36.307Z,438.00
2023-02-01T13:18:36.938Z,439.00
2023-02-01T13:19:37.245Z,440.00
2023-02-01T13:20:35.442Z,440.00
2023-02-01T13:21:37.457Z,436.00
2023-02-01T13:22:37.433Z,435.00
2023-02-01T13:23:37.703Z,437.00
2023-02-01T13:24:37.475Z,433.00
2023-02-01T13:25:37.801Z,434.00
2023-02-01T13:26:38.050Z,438.00
2023-02-01T13:27:38.278Z,437.00
2023-02-01T13:28:39.506Z,436.00
2023-02-01T13:29:36.515Z,437.00
2023-02-01T13:30:38.416Z,437.00
2023-02-01T13:31:38.668Z,436.00
2023-02-01T13:33:50.705Z,435.00
2023-02-01T13:33:54.545Z,436.00
2023-02-01T13:34:38.235Z,438.00
2023-02-01T13:35:39.028Z,439.00
2023-02-01T13:36:39.361Z,438.00
2023-02-01T13:37:38.586Z,440.00
2023-02-01T13:38:37.689Z,442.00
2023-02-01T13:39:38.803Z,443.00
2023-02-01T13:40:37.987Z,441.00
2023-02-01T13:41:41.175Z,442.00
2023-02-01T13:42:38.346Z,441.00
2023-02-01T13:43:38.447Z,441.00
2023-02-01T13:44:38.666Z,441.00
2023-02-01T13:45:38.733Z,438.00
2023-02-01T13:46:40.470Z,438.00
2023-02-01T13:47:38.924Z,438.00
2023-02-01T13:48:39.063Z,439.00
2023-02-01T13:49:41.256Z,443.00
2023-02-01T13:50:39.408Z,448.00
2023-02-01T13:51:41.179Z,448.00
2023-02-01T13:52:40.676Z,449.00
2023-02-01T13:53:39.801Z,448.00
2023-02-01T13:54:40.910Z,448.00
2023-02-01T13:55:42.640Z,447.00
2023-02-01T13:56:41.169Z,447.00
2023-02-01T13:57:40.316Z,449.00
2023-02-01T13:58:41.465Z,452.00
2023-02-01T13:59:41.723Z,452.00
2023-02-01T14:00:41.621Z,452.00
2023-02-01T14:01:40.867Z,451.00
2023-02-01T14:02:42.086Z,453.00
2023-02-01T14:03:42.071Z,454.00
2023-02-01T14:04:42.215Z,454.00
2023-02-01T14:05:42.446Z,453.00
2023-02-01T14:06:42.462Z,453.00
2023-02-01T14:07:41.586Z,455.00
2023-02-01T14:08:41.686Z,455.00
2023-02-01T14:09:41.864Z,456.00
2023-02-01T14:10:42.683Z,456.00
2023-02-01T14:11:42.109Z,458.00
2023-02-01T14:12:42.220Z,457.00
2023-02-01T14:13:43.036Z,459.00
2023-02-01T14:14:42.566Z,457.00
2023-02-01T14:15:43.630Z,458.00
2023-02-01T14:16:43.460Z,459.00
2023-02-01T14:17:42.991Z,457.00
2023-02-01T14:18:44.077Z,457.00
2023-02-01T14:19:43.223Z,458.00
2023-02-01T14:20:43.318Z,459.00
2023-02-01T14:21:45.088Z,459.00
2023-02-01T14:22:44.627Z,458.00
2023-02-01T14:23:44.747Z,459.00
2023-02-01T14:24:45.501Z,459.00
2023-02-01T14:25:45.784Z,458.00
2023-02-01T14:26:46.236Z,459.00
2023-02-01T14:27:45.323Z,459.00
2023-02-01T14:28:46.074Z,459.00
2023-02-01T14:29:46.283Z,457.00
2023-02-01T14:30:45.783Z,456.00
2023-02-01T14:31:46.456Z,456.00
2023-02-01T14:32:46.656Z,453.00
2023-02-01T14:33:46.943Z,452.00
2023-02-01T14:34:46.700Z,453.00
2023-02-01T14:35:46.953Z,450.00
2023-02-01T14:36:47.178Z,449.00
2023-02-01T14:37:46.917Z,451.00
2023-02-01T14:38:47.175Z,450.00
2023-02-01T14:39:46.816Z,453.00
2023-02-01T14:40:46.943Z,455.00
2023-02-01T14:41:47.710Z,456.00
2023-02-01T14:42:47.469Z,456.00
2023-02-01T14:43:47.265Z,458.00
2023-02-01T14:44:58.657Z,458.00
2023-02-01T14:45:48.752Z,458.00
2023-02-01T14:46:46.754Z,457.00
2023-02-01T14:47:46.926Z,463.00
2023-02-01T14:48:47.044Z,465.00
2023-02-01T14:49:47.265Z,464.00
2023-02-01T14:50:47.243Z,462.00
2023-02-01T14:51:49.128Z,461.00
2023-02-01T14:52:48.528Z,462.00
2023-02-01T14:53:47.664Z,462.00
2023-02-01T14:54:49.439Z,462.00
2023-02-01T14:55:49.443Z,459.00
2023-02-01T14:56:49.704Z,457.00
2023-02-01T14:57:49.925Z,458.00
2023-02-01T14:58:48.324Z,456.00
2023-02-01T14:59:50.842Z,457.00
2023-02-01T15:00:50.115Z,454.00
2023-02-01T15:01:48.740Z,453.00
2023-02-01T15:02:48.862Z,455.00
2023-02-01T15:03:50.588Z,457.00
2023-02-01T15:04:50.842Z,458.00
2023-02-01T15:05:49.284Z,457.00
2023-02-01T15:06:49.423Z,457.00
2023-02-01T15:07:49.572Z,457.00
2023-02-01T15:08:49.740Z,460.00
2023-02-01T15:09:51.499Z,459.00
2023-02-01T15:10:50.045Z,460.00
2023-02-01T15:11:51.783Z,460.00
2023-02-01T15:12:50.250Z,458.00
2023-02-01T15:13:52.719Z,456.00
2023-02-01T15:14:51.175Z,453.00
2023-02-01T15:15:51.625Z,450.00
2023-02-01T15:16:51.511Z,447.00
2023-02-01T15:17:51.660Z,449.00
2023-02-01T15:18:51.829Z,451.00
2023-02-01T15:21:28.817Z,488.00
2023-02-01T15:22:07.902Z,468.00
2023-02-01T15:23:07.008Z,469.00
2023-02-01T15:24:08.142Z,469.00
2023-02-01T15:25:08.373Z,467.00
2023-02-01T15:26:09.142Z,463.00
2023-02-01T15:27:08.219Z,459.00
2023-02-01T15:28:08.371Z,457.00
2023-02-01T15:29:08.752Z,453.00
2023-02-01T15:30:08.983Z,451.00
2023-02-01T15:31:09.043Z,448.00
2023-02-01T15:32:09.265Z,445.00
2023-02-01T15:33:09.256Z,445.00
2023-02-01T15:34:09.391Z,447.00
2023-02-01T15:35:08.563Z,448.00
2023-02-01T15:36:10.139Z,449.00
2023-02-01T15:37:10.462Z,448.00
2023-02-01T15:38:09.954Z,445.00
2023-02-01T15:39:11.583Z,447.00
2023-02-01T15:40:10.940Z,447.00
2023-02-01T15:41:09.429Z,449.00
2023-02-01T15:42:09.613Z,450.00
2023-02-01T15:43:10.799Z,450.00
2023-02-01T15:44:09.799Z,450.00
2023-02-01T15:45:09.912Z,452.00
2023-02-01T15:46:11.132Z,454.00
2023-02-01T15:47:11.320Z,456.00
2023-02-01T15:48:11.398Z,456.00
2023-02-01T15:49:10.508Z,456.00
2023-02-01T15:50:11.748Z,457.00
2023-02-01T15:51:10.787Z,456.00
2023-02-01T15:52:11.905Z,454.00
2023-02-01T15:53:12.069Z,453.00
2023-02-01T15:54:12.265Z,453.00
2023-02-01T15:55:12.997Z,451.00
2023-02-01T15:56:11.532Z,451.00
2023-02-01T15:57:11.685Z,450.00
2023-02-01T15:58:12.865Z,448.00
2023-02-01T15:59:13.136Z,445.00
2023-02-01T16:00:12.098Z,444.00
2023-02-01T16:12:19.201Z,488.00
2023-02-01T16:13:19.322Z,462.00
2023-02-01T16:14:19.449Z,462.00
2023-02-01T16:15:20.541Z,462.00
2023-02-01T16:16:21.332Z,462.00
2023-02-01T16:17:20.871Z,459.00
2023-02-01T16:18:21.587Z,456.00
2023-02-01T16:19:22.350Z,454.00
2023-02-01T16:20:21.202Z,454.00
2023-02-01T16:21:21.949Z,453.00
2023-02-01T16:22:22.215Z,453.00
2023-02-01T16:23:22.490Z,452.00
2023-02-01T16:24:22.698Z,452.00
2023-02-01T16:25:21.518Z,453.00
2023-02-01T16:26:22.750Z,454.00
2023-02-01T16:27:22.160Z,456.00
2023-02-01T16:28:22.254Z,455.00
2023-02-01T16:29:23.076Z,453.00
2023-02-01T16:30:23.353Z,455.00
2023-02-01T16:31:23.711Z,456.00
2023-02-01T16:32:21.900Z,457.00
2023-02-01T16:33:23.042Z,457.00
2023-02-01T16:34:23.800Z,455.00
2023-02-01T16:35:24.217Z,456.00
2023-02-01T16:36:23.758Z,454.00
2023-02-01T16:37:24.500Z,456.00
2023-02-01T16:38:24.552Z,455.00
2023-02-01T16:39:24.428Z,453.00
2023-02-01T16:40:23.943Z,451.00
2023-02-01T16:41:24.706Z,452.00
2023-02-01T16:42:23.254Z,453.00
2023-02-01T16:43:24.406Z,456.00
2023-02-01T16:44:24.558Z,455.00
2023-02-01T16:45:23.958Z,454.00
2023-02-01T16:46:24.912Z,454.00
2023-02-01T16:47:25.654Z,455.00
2023-02-01T16:48:25.908Z,456.00
2023-02-01T16:49:25.183Z,455.00
2023-02-01T16:50:25.963Z,454.00
2023-02-01T16:51:26.213Z,452.00